Time;durP1;ratioP1;P1;durP2;ratioP2;P2;SDS_P1;SDS_P2;PMS_P1;PMS_P2;Temp;Humidity;BMP_temperature;BMP_pressure;BME280_temperature;BME280_humidity;BME280_pressure;Samples;Min_cycle;Max_cycle;Signal;HPM_P1;HPM_P2
2021/06/19 00:01:09;;;;;;;7.47;6.93;;;;;;;23.66;59.71;94313.58;836171;70;29653;-77
2021/06/19 00:16:08;;;;;;;8.33;7.73;;;;;;;23.61;60.27;94301.87;829240;71;29787;-76
2021/06/19 00:31:08;;;;;;;10.53;9.47;;;;;;;23.65;60.32;94301.31;828908;71;29745;-78
2021/06/19 00:46:15;;;;;;;9.17;8.37;;;;;;;23.61;60.32;94288.47;827695;71;32742;-77
2021/06/19 01:01:09;;;;;;;8.90;8.30;;;;;;;23.57;60.50;94294.39;834159;71;29765;-77
2021/06/19 01:16:16;;;;;;;9.13;8.43;;;;;;;23.59;60.79;94269.33;827535;71;32715;-76
2021/06/19 01:31:15;;;;;;;9.00;8.40;;;;;;;23.52;60.74;94267.39;827571;71;33240;-76
2021/06/19 01:46:16;;;;;;;9.00;8.30;;;;;;;23.44;61.34;94274.41;827553;71;32684;-76
2021/06/19 02:01:15;;;;;;;7.17;6.63;;;;;;;23.45;61.37;94283.42;828630;71;32649;-76
2021/06/19 02:16:08;;;;;;;6.30;5.90;;;;;;;23.38;61.91;94307.50;834053;71;30124;-79
2021/06/19 02:31:16;;;;;;;5.50;5.10;;;;;;;23.30;63.66;94332.70;827544;71;32679;-80
2021/06/19 02:46:15;;;;;;;5.60;5.20;;;;;;;23.30;64.73;94316.63;834113;71;32635;-83
2021/06/19 03:16:14;;;;;;;4.80;4.50;;;;;;;23.17;64.73;94290.72;835803;71;32673;-82
2021/06/19 03:31:17;;;;;;;5.30;4.90;;;;;;;23.17;64.90;94298.75;830064;70;32689;-82
2021/06/19 03:46:09;;;;;;;4.83;4.43;;;;;;;23.17;64.67;94284.78;830066;70;30589;-82
2021/06/19 04:01:11;;;;;;;5.60;5.10;;;;;;;23.16;64.59;94294.55;829089;71;30279;-80
2021/06/19 04:16:17;;;;;;;6.00;5.60;;;;;;;23.13;64.97;94273.29;835385;71;32677;-79
2021/06/19 04:31:15;;;;;;;6.37;5.83;;;;;;;23.30;65.27;94280.48;827942;71;32632;-82
2021/06/19 04:46:13;;;;;;;6.10;5.70;;;;;;;23.32;65.70;94296.37;822359;71;32220;-80
2021/06/19 05:01:14;;;;;;;7.20;6.50;;;;;;;23.36;65.91;94310.55;827723;71;32669;-80
2021/06/19 05:16:30;;;;;;;7.77;7.00;;;;;;;23.43;67.76;94321.86;828043;71;33225;-76
2021/06/19 05:31:15;;;;;;;6.97;6.43;;;;;;;23.66;68.59;94311.45;827657;71;33115;-80
2021/06/19 05:46:08;;;;;;;7.00;6.50;;;;;;;24.25;67.87;94312.64;832832;70;29688;-81
2021/06/19 06:01:15;;;;;;;29.83;27.20;;;;;;;24.53;67.65;94320.01;834832;71;32688;-80
2021/06/19 06:16:12;;;;;;;9.50;8.60;;;;;;;24.22;67.88;94338.89;834257;71;32054;-79
2021/06/19 06:31:08;;;;;;;9.50;8.70;;;;;;;23.03;72.94;94328.86;828233;71;30178;-78
2021/06/19 06:46:09;;;;;;;10.33;9.43;;;;;;;22.15;76.00;94336.98;829093;71;30289;-79
2021/06/19 07:01:16;;;;;;;11.80;10.63;;;;;;;21.85;78.62;94324.42;813301;71;33278;-79
2021/06/19 07:16:09;;;;;;;10.10;9.10;;;;;;;22.41;79.11;94314.75;828311;71;31366;-80
2021/06/19 07:31:11;;;;;;;9.70;8.90;;;;;;;24.35;74.53;94303.85;823907;71;31473;-79
2021/06/19 07:46:18;;;;;;;8.43;7.70;;;;;;;26.78;64.70;94286.38;835191;71;32767;-80
2021/06/19 08:01:15;;;;;;;7.80;7.20;;;;;;;29.12;56.75;94270.06;827655;71;32689;-79
2021/06/19 08:16:10;;;;;;;7.57;6.97;;;;;;;30.46;52.00;94271.11;829924;71;29699;-80
2021/06/19 08:31:09;;;;;;;7.63;7.03;;;;;;;31.29;47.98;94268.55;834180;71;30761;-81
2021/06/19 08:46:10;;;;;;;7.57;7.07;;;;;;;30.81;47.57;94257.91;828295;71;30117;-78
2021/06/19 09:16:12;;;;;;;7.73;7.23;;;;;;;30.06;47.26;94243.35;828472;71;29952;-76
2021/06/19 09:31:09;;;;;;;8.20;7.60;;;;;;;29.80;46.38;94230.93;834143;71;30679;-79
2021/06/19 09:46:14;;;;;;;7.70;7.10;;;;;;;28.47;50.26;94244.04;827483;71;32767;-78
2021/06/19 10:01:24;;;;;;;8.17;7.57;;;;;;;27.15;55.98;94245.83;834055;71;32707;-78
2021/06/19 10:16:11;;;;;;;7.20;6.60;;;;;;;26.27;60.03;165596.44;834329;71;30594;-78
2021/06/19 10:31:10;;;;;;;7.40;6.90;;;;;;;25.85;61.82;94202.75;828298;71;30286;-77
2021/06/19 10:46:30;;;;;;;6.23;5.80;;;;;;;27.34;57.23;94187.15;793918;74;32798;-78
2021/06/19 11:01:21;;;;;;;6.47;6.07;;;;;;;28.32;53.53;94173.89;828607;71;30297;-78
2021/06/19 11:16:34;;;;;;;7.23;6.70;;;;;;;28.15;53.12;94197.29;828214;71;31140;-79
2021/06/19 11:31:19;;;;;;;7.40;6.90;;;;;;;26.84;57.09;94203.22;813982;71;32894;-78
2021/06/19 11:46:10;;;;;;;6.00;5.60;;;;;;;25.66;60.65;123554.15;829577;71;30045;-84
2021/06/19 12:01:10;;;;;;;5.47;5.07;;;;;;;23.97;65.94;94291.33;835108;71;29245;-82
2021/06/19 12:16:15;;;;;;;6.90;6.30;;;;;;;23.64;68.26;94261.50;827586;71;32147;-78
2021/06/19 12:31:09;;;;;;;5.50;5.13;;;;;;;24.15;67.12;94248.48;828275;71;29326;-77
2021/06/19 12:46:12;;;;;;;6.33;5.40;;;;;;;24.38;66.48;94205.97;834196;71;29238;-75
2021/06/19 13:01:29;;;;;;;6.50;6.00;;;;;;;25.13;64.40;94201.11;834931;71;29241;-78
2021/06/19 13:16:19;;;;;;;6.60;6.10;;;;;;;25.24;62.22;94201.09;828683;71;31670;-82
2021/06/19 13:31:26;;;;;;;6.63;6.13;;;;;;;25.25;61.14;94199.95;827331;71;31725;-83
2021/06/19 13:46:09;;;;;;;6.00;5.60;;;;;;;25.52;60.29;94241.11;828559;71;29825;-81
2021/06/19 14:01:15;;;;;;;6.10;5.60;;;;;;;25.72;58.04;94258.89;834692;71;31724;-79
2021/06/19 14:16:12;;;;;;;5.97;5.47;;;;;;;25.24;58.00;94249.44;828323;71;29803;-81
2021/06/19 14:31:16;;;;;;;7.00;6.50;;;;;;;24.45;63.89;94246.77;827538;71;32368;-81
2021/06/19 14:46:09;;;;;;;9.80;8.90;;;;;;;23.88;69.71;94226.58;834384;71;29258;-79
2021/06/19 15:16:14;;;;;;;9.43;8.63;;;;;;;22.86;75.42;94225.89;833792;71;31715;-75
2021/06/19 15:31:08;;;;;;;7.93;7.33;;;;;;;22.62;75.78;94221.13;834012;71;29902;-77
2021/06/19 15:46:08;;;;;;;8.80;8.10;;;;;;;22.58;75.76;94208.48;828343;71;30252;-76
2021/06/19 16:01:08;;;;;;;8.80;7.90;;;;;;;23.14;73.65;94199.13;829307;71;29720;-76
2021/06/19 16:16:09;;;;;;;7.80;7.20;;;;;;;23.14;72.14;94206.58;834189;71;30754;-78
2021/06/19 16:31:09;;;;;;;7.30;6.80;;;;;;;22.85;70.87;94196.81;829483;71;29721;-78
2021/06/19 16:46:08;;;;;;;8.60;7.40;;;;;;;22.79;71.96;94218.59;829348;71;29709;-78
2021/06/19 17:01:08;;;;;;;7.53;6.93;;;;;;;23.39;72.92;94231.36;829927;71;29627;-77
2021/06/19 17:46:10;;;;;;;8.50;7.70;;;;;;;22.95;68.12;94256.32;829077;71;30273;-78
2021/06/19 18:01:18;;;;;;;10.47;8.40;;;;;;;22.10;71.94;94256.58;834332;71;32696;-77
2021/06/19 18:31:09;;;;;;;8.30;7.60;;;;;;;21.00;75.22;94285.55;828303;71;30288;-78
2021/06/19 18:46:13;;;;;;;13.27;9.57;;;;;;;20.63;76.21;94283.25;828990;71;32049;-79
2021/06/19 19:01:16;;;;;;;6.83;6.33;;;;;;;19.97;75.45;94277.34;818362;70;32761;-79
2021/06/19 19:16:20;;;;;;;8.25;7.55;;;;;;;19.62;76.36;94299.45;823894;71;33341;-80
2021/06/19 19:31:17;;;;;;;10.80;8.78;;;;;;;19.20;76.71;94330.71;828519;71;32722;-79
2021/06/19 19:46:20;;;;;;;6.50;6.00;;;;;;;19.14;76.92;94345.93;828518;71;32683;-79
2021/06/19 20:01:10;;;;;;;5.60;5.10;;;;;;;19.18;76.75;94331.62;828130;71;30735;-79
2021/06/19 20:16:16;;;;;;;6.15;5.55;;;;;;;19.52;80.12;94345.25;822668;71;32714;-78
2021/06/19 20:31:08;;;;;;;5.45;5.03;;;;;;;19.93;77.17;94336.98;828296;71;29727;-80
2021/06/19 20:46:09;;;;;;;4.67;4.28;;;;;;;20.08;75.77;94360.69;827078;71;30855;-81
2021/06/19 21:16:14;;;;;;;4.08;3.77;;;;;;;20.22;73.70;94383.60;827457;71;32653;-78
2021/06/19 21:31:09;;;;;;;4.10;3.80;;;;;;;20.28;73.36;94373.44;828060;71;30227;-79
2021/06/19 21:46:10;;;;;;;3.35;3.10;;;;;;;20.22;73.50;94360.95;827977;71;30985;-78
2021/06/19 22:01:09;;;;;;;3.58;3.27;;;;;;;20.30;72.00;94339.21;828131;71;30231;-78
2021/06/19 22:16:08;;;;;;;3.20;3.00;;;;;;;20.40;72.09;94335.40;828418;71;30097;-79
2021/06/19 22:31:08;;;;;;;4.35;4.05;;;;;;;20.48;71.83;94319.52;830009;71;29667;-78
2021/06/19 22:46:09;;;;;;;4.60;4.30;;;;;;;20.39;72.03;94318.42;834198;71;30839;-78
2021/06/19 23:01:08;;;;;;;4.30;3.87;;;;;;;20.41;72.14;94304.94;834275;71;30174;-78
2021/06/19 23:16:09;;;;;;;3.45;3.25;;;;;;;20.30;71.91;94281.92;828310;71;29194;-78
2021/06/19 23:31:08;;;;;;;3.45;3.15;;;;;;;20.04;72.12;94283.92;829145;71;28666;-79
2021/06/19 23:46:15;;;;;;;3.45;3.25;;;;;;;20.05;72.19;94292.11;827695;71;32181;-78
